createdAt,value
2023-04-21T00:01:45.660Z,99.90
2023-04-21T00:04:13.971Z,99.90
2023-04-21T00:06:41.667Z,99.90
2023-04-21T00:09:09.739Z,99.90
2023-04-21T00:11:37.296Z,99.90
2023-04-21T00:14:04.698Z,99.90
2023-04-21T00:16:32.070Z,99.90
2023-04-21T00:18:59.620Z,99.90
2023-04-21T00:21:26.930Z,99.90
2023-04-21T00:23:54.338Z,99.90
2023-04-21T00:26:21.635Z,99.90
2023-04-21T00:28:50.849Z,99.90
2023-04-21T00:31:18.231Z,99.90
2023-04-21T00:33:45.774Z,99.90
2023-04-21T00:36:13.058Z,99.90
2023-04-21T00:38:40.540Z,99.90
2023-04-21T00:41:08.903Z,99.90
2023-04-21T00:43:58.474Z,99.90
2023-04-21T00:46:26.048Z,99.90
2023-04-21T00:48:54.106Z,99.90
2023-04-21T00:51:21.686Z,99.90
2023-04-21T00:53:50.084Z,99.90
2023-04-21T00:56:18.880Z,99.90
2023-04-21T00:58:46.687Z,99.90
2023-04-21T01:01:14.649Z,99.90
2023-04-21T01:03:47.653Z,99.90
2023-04-21T01:06:15.108Z,99.90
2023-04-21T01:08:42.610Z,99.90
2023-04-21T01:11:11.140Z,99.90
2023-04-21T01:13:40.902Z,99.90
2023-04-21T01:16:08.568Z,99.90
2023-04-21T01:18:37.007Z,99.90
2023-04-21T01:21:06.207Z,99.90
2023-04-21T01:23:34.530Z,99.90
2023-04-21T01:26:02.063Z,99.90
2023-04-21T01:28:29.456Z,99.90
2023-04-21T01:30:56.734Z,99.90
2023-04-21T01:33:24.384Z,99.90
2023-04-21T01:35:51.995Z,99.90
2023-04-21T01:38:21.816Z,99.90
2023-04-21T01:40:52.609Z,99.90
2023-04-21T01:43:22.014Z,99.90
2023-04-21T01:45:49.373Z,99.90
2023-04-21T01:48:16.972Z,99.90
2023-04-21T01:50:44.543Z,99.90
2023-04-21T01:53:11.900Z,99.90
2023-04-21T01:55:39.495Z,99.90
2023-04-21T01:58:10.068Z,99.90
2023-04-21T02:00:37.500Z,99.90
2023-04-21T02:03:05.825Z,99.90
2023-04-21T02:05:33.247Z,99.90
2023-04-21T02:08:00.621Z,99.90
2023-04-21T02:10:28.036Z,99.90
2023-04-21T02:12:55.412Z,99.90
2023-04-21T02:15:22.872Z,99.90
2023-04-21T02:17:50.175Z,99.90
2023-04-21T02:20:17.506Z,99.90
2023-04-21T02:22:44.790Z,99.90
2023-04-21T02:25:12.158Z,99.90
2023-04-21T02:27:39.791Z,99.90
2023-04-21T02:30:08.188Z,99.90
2023-04-21T02:32:35.650Z,99.90
2023-04-21T02:35:05.607Z,99.90
2023-04-21T02:37:33.048Z,99.90
2023-04-21T02:40:00.445Z,99.90
2023-04-21T02:42:27.740Z,99.90
2023-04-21T02:44:55.061Z,99.90
2023-04-21T02:47:22.376Z,99.90
2023-04-21T02:49:49.757Z,99.90
2023-04-21T02:52:17.063Z,99.90
2023-04-21T02:54:44.430Z,99.90
2023-04-21T02:57:11.753Z,99.90
2023-04-21T02:59:40.307Z,99.90
2023-04-21T03:02:07.723Z,99.90
2023-04-21T03:04:39.427Z,99.90
2023-04-21T03:07:12.449Z,99.90
2023-04-21T03:09:40.775Z,99.90
2023-04-21T03:12:08.182Z,99.90
2023-04-21T03:14:36.704Z,99.90
2023-04-21T03:17:04.011Z,99.90
2023-04-21T03:19:33.159Z,99.90
2023-04-21T03:22:00.465Z,99.90
2023-04-21T03:24:28.604Z,99.90
2023-04-21T03:26:57.010Z,99.90
2023-04-21T03:29:24.526Z,99.90
2023-04-21T03:31:51.880Z,99.90
2023-04-21T03:34:19.556Z,99.90
2023-04-21T03:36:46.944Z,99.90
2023-04-21T03:41:46.538Z,99.90
2023-04-21T03:44:13.893Z,99.90
2023-04-21T03:46:41.154Z,99.90
2023-04-21T03:49:08.483Z,99.90
2023-04-21T03:51:35.789Z,99.90
2023-04-21T03:54:03.273Z,99.90
2023-04-21T03:56:30.698Z,99.90
2023-04-21T03:58:58.146Z,99.90
2023-04-21T04:01:25.548Z,99.90
2023-04-21T04:03:53.056Z,99.90
2023-04-21T04:06:20.622Z,99.90
2023-04-21T04:08:48.004Z,99.90
2023-04-21T04:11:15.390Z,99.90
2023-04-21T04:13:42.734Z,99.90
2023-04-21T04:16:10.230Z,99.90
2023-04-21T04:18:37.611Z,99.90
2023-04-21T04:21:08.506Z,99.90
2023-04-21T04:23:36.605Z,99.90
2023-04-21T04:26:07.404Z,99.90
2023-04-21T04:28:34.976Z,99.90
2023-04-21T04:31:03.218Z,99.90
2023-04-21T04:33:30.653Z,99.90
2023-04-21T04:35:58.379Z,99.90
2023-04-21T04:38:25.743Z,99.90
2023-04-21T04:40:57.703Z,99.90
2023-04-21T04:43:25.607Z,99.90
2023-04-21T04:45:53.388Z,99.90
2023-04-21T04:48:20.728Z,99.90
2023-04-21T04:50:48.136Z,99.90
2023-04-21T04:53:15.889Z,99.90
2023-04-21T04:55:43.278Z,99.90
2023-04-21T04:58:10.788Z,99.90
2023-04-21T05:00:38.192Z,99.90
2023-04-21T05:03:06.044Z,99.90
2023-04-21T05:05:33.525Z,99.90
2023-04-21T05:08:00.905Z,99.90
2023-04-21T05:10:28.334Z,99.90
2023-04-21T05:12:55.723Z,99.90
2023-04-21T05:15:23.147Z,99.90
2023-04-21T05:17:50.577Z,99.90
2023-04-21T05:20:18.075Z,99.90
2023-04-21T05:22:45.387Z,99.90
2023-04-21T05:25:16.175Z,99.90
2023-04-21T05:27:43.681Z,99.90
2023-04-21T05:30:11.615Z,99.90
2023-04-21T05:32:39.065Z,99.90
2023-04-21T05:35:07.071Z,99.90
2023-04-21T05:37:34.409Z,99.90
2023-04-21T05:40:01.762Z,99.90
2023-04-21T05:42:29.108Z,99.90
2023-04-21T05:44:56.659Z,99.90
2023-04-21T05:47:23.964Z,99.90
2023-04-21T05:49:54.365Z,99.90
2023-04-21T05:52:21.933Z,99.90
2023-04-21T05:54:49.408Z,99.90
2023-04-21T05:57:17.731Z,99.90
2023-04-21T05:59:45.297Z,99.90
2023-04-21T06:02:13.452Z,99.90
2023-04-21T06:04:40.986Z,99.90
2023-04-21T06:07:10.419Z,99.90
2023-04-21T06:09:38.352Z,99.90
2023-04-21T06:12:06.122Z,99.90
2023-04-21T06:14:33.455Z,99.90
2023-04-21T06:17:00.848Z,99.90
2023-04-21T06:19:28.179Z,99.90
2023-04-21T06:21:57.168Z,99.90
2023-04-21T06:24:25.696Z,99.90
2023-04-21T06:26:53.493Z,99.90
2023-04-21T06:29:21.072Z,99.90
2023-04-21T06:31:48.645Z,99.90
2023-04-21T06:34:16.315Z,99.90
2023-04-21T06:36:44.811Z,99.90
2023-04-21T06:39:12.154Z,99.90
2023-04-21T06:41:39.777Z,99.90
2023-04-21T06:44:07.174Z,99.90
2023-04-21T06:46:34.626Z,99.90
2023-04-21T06:49:02.031Z,99.90
2023-04-21T06:51:29.443Z,99.90
2023-04-21T06:53:56.757Z,99.90
2023-04-21T06:56:24.209Z,99.90
2023-04-21T06:58:52.252Z,95.00
2023-04-21T07:01:19.658Z,90.10
2023-04-21T07:03:47.142Z,81.90
2023-04-21T07:06:14.623Z,85.70
2023-04-21T07:08:41.949Z,80.80
2023-04-21T07:11:09.374Z,79.40
2023-04-21T07:13:36.711Z,77.80
2023-04-21T07:16:04.251Z,79.70
2023-04-21T07:18:32.619Z,86.80
2023-04-21T07:21:00.349Z,82.60
2023-04-21T07:23:27.709Z,87.20
2023-04-21T07:25:58.924Z,89.00
2023-04-21T07:28:26.696Z,85.00
2023-04-21T07:30:54.151Z,86.10
2023-04-21T07:33:21.462Z,90.60
2023-04-21T07:35:48.842Z,92.70
2023-04-21T07:38:16.187Z,88.00
2023-04-21T07:40:46.076Z,87.20
2023-04-21T07:43:13.911Z,89.20
2023-04-21T07:45:41.366Z,83.00
2023-04-21T07:48:08.833Z,79.70
2023-04-21T07:50:36.614Z,74.70
2023-04-21T07:53:04.077Z,75.80
2023-04-21T07:55:31.580Z,81.60
2023-04-21T07:58:01.902Z,86.90
2023-04-21T08:00:29.629Z,85.10
2023-04-21T08:02:57.159Z,86.20
2023-04-21T08:05:27.310Z,88.10
2023-04-21T08:07:56.384Z,83.30
2023-04-21T08:10:24.129Z,86.90
2023-04-21T08:12:51.771Z,88.60
2023-04-21T08:15:19.374Z,87.80
2023-04-21T08:17:46.966Z,93.40
2023-04-21T08:20:14.604Z,92.70
2023-04-21T08:22:42.404Z,92.50
2023-04-21T08:25:10.032Z,91.10
2023-04-21T08:27:40.822Z,92.90
2023-04-21T08:30:09.255Z,94.90
2023-04-21T08:32:36.738Z,92.40
2023-04-21T08:35:04.358Z,90.00
2023-04-21T08:37:31.836Z,91.20
2023-04-21T08:39:59.420Z,92.00
2023-04-21T08:42:30.338Z,76.50
2023-04-21T08:44:58.045Z,72.80
2023-04-21T08:47:26.129Z,69.70
2023-04-21T08:49:54.570Z,64.90
2023-04-21T08:52:22.058Z,73.50
2023-04-21T08:54:53.419Z,65.80
2023-04-21T08:57:21.153Z,65.20
2023-04-21T08:59:48.639Z,62.60
2023-04-21T09:02:19.085Z,59.20
2023-04-21T09:04:49.103Z,57.10
2023-04-21T09:07:34.612Z,55.60
2023-04-21T09:10:02.442Z,55.70
2023-04-21T09:12:30.428Z,61.70
2023-04-21T09:14:58.640Z,56.60
2023-04-21T09:17:34.225Z,57.40
2023-04-21T09:20:19.338Z,54.30
2023-04-21T09:22:51.609Z,53.70
2023-04-21T09:25:22.746Z,58.80
2023-04-21T09:27:50.164Z,54.60
2023-04-21T09:30:20.578Z,56.20
2023-04-21T09:32:47.997Z,54.40
2023-04-21T09:35:15.634Z,52.60
2023-04-21T09:37:45.757Z,53.00
2023-04-21T09:40:15.104Z,53.40
2023-04-21T09:42:44.489Z,53.20
2023-04-21T09:47:51.258Z,53.10
2023-04-21T09:50:39.295Z,57.50
2023-04-21T09:53:15.522Z,53.80
2023-04-21T09:55:46.757Z,52.20
2023-04-21T09:58:19.490Z,52.40
2023-04-21T10:00:47.683Z,50.80
2023-04-21T10:03:18.241Z,52.60
2023-04-21T10:05:48.107Z,52.10
2023-04-21T10:08:17.164Z,52.90
2023-04-21T10:10:45.867Z,51.40
2023-04-21T10:13:16.688Z,51.90
2023-04-21T10:15:44.265Z,54.40
2023-04-21T10:18:20.113Z,57.80
2023-04-21T10:21:04.086Z,53.40
2023-04-21T10:23:53.024Z,49.70
2023-04-21T10:26:32.458Z,49.20
2023-04-21T10:29:07.128Z,50.30
2023-04-21T10:31:44.666Z,52.90
2023-04-21T10:34:16.878Z,48.70
2023-04-21T10:37:09.063Z,50.90
2023-04-21T10:39:48.291Z,54.00
2023-04-21T10:42:24.669Z,50.30
2023-04-21T10:45:05.308Z,45.90
2023-04-21T10:47:41.518Z,45.80
2023-04-21T10:50:14.470Z,47.30
2023-04-21T10:52:53.496Z,46.00
2023-04-21T10:55:22.003Z,45.90
2023-04-21T10:57:50.704Z,43.20
2023-04-21T11:00:20.730Z,43.40
2023-04-21T11:02:57.252Z,44.60
2023-04-21T11:05:29.464Z,44.90
2023-04-21T11:08:14.634Z,44.00
2023-04-21T11:10:53.081Z,44.60
2023-04-21T11:13:33.457Z,44.10
2023-04-21T11:16:03.611Z,43.20
2023-04-21T11:18:44.898Z,42.40
2023-04-21T11:21:17.950Z,42.60
2023-04-21T11:23:55.973Z,44.20
2023-04-21T11:26:34.171Z,41.30
2023-04-21T11:29:03.317Z,43.80
2023-04-21T11:31:31.233Z,45.10
2023-04-21T11:34:02.774Z,44.00
2023-04-21T11:36:32.187Z,43.10
2023-04-21T11:38:59.743Z,46.20
2023-04-21T11:41:27.056Z,43.20
2023-04-21T11:43:54.415Z,44.70
2023-04-21T11:46:26.839Z,47.20
2023-04-21T11:49:06.325Z,44.60
2023-04-21T11:51:39.285Z,49.50
2023-04-21T11:54:10.004Z,50.80
2023-04-21T11:56:39.533Z,42.90
2023-04-21T11:59:14.868Z,42.10
2023-04-21T12:01:53.903Z,42.70
2023-04-21T12:04:25.999Z,43.60
2023-04-21T12:07:01.865Z,41.70
2023-04-21T12:09:30.414Z,42.10
2023-04-21T12:12:02.564Z,41.70
2023-04-21T12:14:33.366Z,41.50
2023-04-21T12:17:00.755Z,42.20
2023-04-21T12:19:42.499Z,42.30
2023-04-21T12:22:11.934Z,41.40
2023-04-21T12:24:39.960Z,41.10
2023-04-21T12:27:08.436Z,42.20
2023-04-21T12:29:37.483Z,45.30
2023-04-21T12:32:08.696Z,42.30
2023-04-21T12:34:36.374Z,42.50
2023-04-21T12:37:04.092Z,42.20
2023-04-21T12:39:32.268Z,41.60
2023-04-21T12:42:00.035Z,43.00
2023-04-21T12:44:28.266Z,42.80
2023-04-21T12:46:55.903Z,42.10
2023-04-21T12:49:23.635Z,40.60
2023-04-21T12:51:51.071Z,41.30
2023-04-21T12:54:18.866Z,41.30
2023-04-21T12:56:46.933Z,42.40
2023-04-21T12:59:14.475Z,41.00
2023-04-21T13:01:44.877Z,40.10
2023-04-21T13:04:12.479Z,41.00
2023-04-21T13:06:40.618Z,42.20
2023-04-21T13:09:08.414Z,40.30
2023-04-21T13:11:35.831Z,38.60
2023-04-21T13:14:04.226Z,40.70
2023-04-21T13:16:34.341Z,41.70
2023-04-21T13:19:01.910Z,39.60
2023-04-21T13:21:29.282Z,41.00
2023-04-21T13:23:58.273Z,40.30
2023-04-21T13:26:25.957Z,42.30
2023-04-21T13:28:54.897Z,39.70
2023-04-21T13:31:22.282Z,41.50
2023-04-21T13:33:50.308Z,42.00
2023-04-21T13:36:18.983Z,44.80
2023-04-21T13:38:48.123Z,44.60
2023-04-21T13:41:15.499Z,46.20
2023-04-21T13:43:43.110Z,47.00
2023-04-21T13:46:10.501Z,44.90
2023-04-21T13:48:37.897Z,44.40
2023-04-21T13:51:05.542Z,45.80
2023-04-21T13:53:33.178Z,45.80
2023-04-21T13:56:00.617Z,46.60
2023-04-21T13:58:30.655Z,46.80
2023-04-21T14:00:57.971Z,45.70
2023-04-21T14:03:25.540Z,45.10
2023-04-21T14:05:53.039Z,45.70
2023-04-21T14:08:20.776Z,47.20
2023-04-21T14:10:48.125Z,48.00
2023-04-21T14:13:27.395Z,49.20
2023-04-21T14:16:02.715Z,47.00
2023-04-21T14:18:30.171Z,46.10
2023-04-21T14:20:57.470Z,45.80
2023-04-21T14:23:25.410Z,48.20
2023-04-21T14:25:54.849Z,47.80
2023-04-21T14:28:22.581Z,46.60
2023-04-21T14:30:50.010Z,46.20
2023-04-21T14:33:17.378Z,47.70
2023-04-21T14:35:44.759Z,47.20
2023-04-21T14:38:12.096Z,46.40
2023-04-21T14:40:39.382Z,46.40
2023-04-21T14:43:06.826Z,48.90
2023-04-21T14:45:34.185Z,47.80
2023-04-21T14:48:01.625Z,49.50
2023-04-21T14:50:29.149Z,48.20
2023-04-21T14:52:56.498Z,52.10
2023-04-21T14:55:23.812Z,50.50
2023-04-21T14:57:52.351Z,49.00
2023-04-21T15:00:20.679Z,49.40
2023-04-21T15:02:48.190Z,52.30
2023-04-21T15:05:15.865Z,49.00
2023-04-21T15:07:43.367Z,49.10
2023-04-21T15:10:11.282Z,50.40
2023-04-21T15:12:41.878Z,51.40
2023-04-21T15:15:09.710Z,50.50
2023-04-21T15:17:37.241Z,50.60
2023-04-21T15:20:05.440Z,52.20
2023-04-21T15:22:33.049Z,51.00
2023-04-21T15:25:00.517Z,50.80
2023-04-21T15:27:27.836Z,49.80
2023-04-21T15:29:55.191Z,48.60
2023-04-21T15:32:22.525Z,48.90
2023-04-21T15:34:49.886Z,48.60
2023-04-21T15:37:17.740Z,49.80
2023-04-21T15:39:45.111Z,49.60
2023-04-21T15:42:12.502Z,49.20
2023-04-21T15:44:39.951Z,50.60
2023-04-21T15:47:07.321Z,48.90
2023-04-21T15:49:34.895Z,48.00
2023-04-21T15:52:04.410Z,49.50
2023-04-21T15:54:34.132Z,46.70
2023-04-21T15:57:05.457Z,46.40
2023-04-21T15:59:34.988Z,46.40
2023-04-21T16:02:02.473Z,46.40
2023-04-21T16:04:30.231Z,45.50
2023-04-21T16:06:57.711Z,44.60
2023-04-21T16:09:25.066Z,44.40
2023-04-21T16:11:52.464Z,45.50
2023-04-21T16:14:19.957Z,44.40
2023-04-21T16:16:47.432Z,46.90
2023-04-21T16:19:14.921Z,47.80
2023-04-21T16:21:42.870Z,50.50
2023-04-21T16:24:10.891Z,50.10
2023-04-21T16:26:38.203Z,51.70
2023-04-21T16:29:05.567Z,51.00
2023-04-21T16:31:32.962Z,52.00
2023-04-21T16:34:00.540Z,51.60
2023-04-21T16:36:28.891Z,50.90
2023-04-21T16:38:56.433Z,51.10
2023-04-21T16:41:23.831Z,52.60
2023-04-21T16:43:51.209Z,53.10
2023-04-21T16:46:18.884Z,53.10
2023-04-21T16:48:46.631Z,53.70
2023-04-21T16:51:14.123Z,53.00
2023-04-21T16:53:42.120Z,53.90
2023-04-21T16:56:09.951Z,54.00
2023-04-21T16:58:37.780Z,54.30
2023-04-21T17:01:07.537Z,54.40
2023-04-21T17:03:35.398Z,54.70
2023-04-21T17:06:04.978Z,54.90
2023-04-21T17:08:32.312Z,53.40
2023-04-21T17:11:00.281Z,54.80
2023-04-21T17:13:27.639Z,55.60
2023-04-21T17:15:55.018Z,54.90
2023-04-21T17:18:22.419Z,55.70
2023-04-21T17:20:49.723Z,55.20
2023-04-21T17:23:17.094Z,54.50
2023-04-21T17:25:45.958Z,54.90
2023-04-21T17:28:15.285Z,55.40
2023-04-21T17:30:42.749Z,55.50
2023-04-21T17:35:55.658Z,55.90
2023-04-21T17:38:29.559Z,55.70
2023-04-21T17:40:56.901Z,56.90
2023-04-21T17:43:24.408Z,57.40
2023-04-21T17:45:52.468Z,59.10
2023-04-21T17:48:21.023Z,57.40
2023-04-21T17:50:48.351Z,58.20
2023-04-21T17:53:15.681Z,58.00
2023-04-21T17:55:43.436Z,58.30
2023-04-21T17:58:12.457Z,58.80
2023-04-21T18:00:40.911Z,58.40
2023-04-21T18:03:08.489Z,58.10
2023-04-21T18:05:36.231Z,58.70
2023-04-21T18:08:03.539Z,58.70
2023-04-21T18:10:31.178Z,58.50
2023-04-21T18:12:58.629Z,59.30
2023-04-21T18:15:26.016Z,59.90
2023-04-21T18:17:53.467Z,61.10
2023-04-21T18:20:20.987Z,60.40
2023-04-21T18:22:49.358Z,60.90
2023-04-21T18:25:27.292Z,60.70
2023-04-21T18:28:05.802Z,64.00
2023-04-21T18:30:33.748Z,64.00
2023-04-21T18:33:01.125Z,64.50
2023-04-21T18:35:28.484Z,65.40
2023-04-21T18:37:56.442Z,65.50
2023-04-21T18:40:24.007Z,65.40
2023-04-21T18:42:51.762Z,65.90
2023-04-21T18:45:19.191Z,66.70
2023-04-21T18:47:46.882Z,67.70
2023-04-21T18:50:14.297Z,68.80
2023-04-21T18:52:41.583Z,71.00
2023-04-21T18:55:09.562Z,72.60
2023-04-21T18:57:36.850Z,72.40
2023-04-21T19:00:05.384Z,74.10
2023-04-21T19:02:33.361Z,75.00
2023-04-21T19:05:00.759Z,76.20
2023-04-21T19:07:28.075Z,76.30
2023-04-21T19:09:55.503Z,77.90
2023-04-21T19:12:22.970Z,80.40
2023-04-21T19:17:18.600Z,86.20
2023-04-21T19:19:46.091Z,85.50
2023-04-21T19:22:13.443Z,87.50
2023-04-21T19:27:08.607Z,90.90
2023-04-21T19:29:36.963Z,91.20
2023-04-21T19:32:04.559Z,92.80
2023-04-21T19:34:32.156Z,92.20
2023-04-21T19:36:59.678Z,93.90
2023-04-21T19:39:27.745Z,93.10
2023-04-21T19:41:57.361Z,93.30
2023-04-21T19:44:24.724Z,93.10
2023-04-21T19:46:52.323Z,93.70
2023-04-21T19:49:19.666Z,93.50
2023-04-21T19:51:47.098Z,93.60
2023-04-21T19:54:14.402Z,93.30
2023-04-21T19:56:41.817Z,93.30
2023-04-21T19:59:09.091Z,93.10
2023-04-21T20:01:36.717Z,94.10
2023-04-21T20:04:04.669Z,94.90
2023-04-21T20:06:32.851Z,95.10
2023-04-21T20:09:05.679Z,95.40
2023-04-21T20:11:34.045Z,95.30
2023-04-21T20:14:01.376Z,96.00
2023-04-21T20:16:29.174Z,96.70
2023-04-21T20:18:56.642Z,96.80
2023-04-21T20:21:23.998Z,99.20
2023-04-21T20:23:51.448Z,99.20
2023-04-21T20:26:18.897Z,99.50
2023-04-21T20:28:46.919Z,99.90
2023-04-21T20:31:14.796Z,99.90
2023-04-21T20:33:42.199Z,99.90
2023-04-21T20:36:09.572Z,99.90
2023-04-21T20:38:38.359Z,99.90
2023-04-21T20:41:05.744Z,99.90
2023-04-21T20:43:33.560Z,99.90
2023-04-21T20:46:01.736Z,99.90
2023-04-21T20:48:29.110Z,99.90
2023-04-21T20:50:56.759Z,99.90
2023-04-21T20:53:24.089Z,99.90
2023-04-21T20:55:51.523Z,99.90
2023-04-21T20:58:18.868Z,99.90
2023-04-21T21:00:46.280Z,99.90
2023-04-21T21:05:42.088Z,99.90
2023-04-21T21:08:10.067Z,99.90
2023-04-21T21:10:37.428Z,99.90
2023-04-21T21:13:04.820Z,99.90
2023-04-21T21:15:32.334Z,99.90
2023-04-21T21:18:00.028Z,99.90
2023-04-21T21:20:27.418Z,99.90
2023-04-21T21:22:54.821Z,99.90
2023-04-21T21:25:22.143Z,99.90
2023-04-21T21:27:49.735Z,99.90
2023-04-21T21:30:17.133Z,99.90
2023-04-21T21:32:44.530Z,99.90
2023-04-21T21:35:12.153Z,99.90
2023-04-21T21:37:39.616Z,99.90
2023-04-21T21:40:07.869Z,99.90
2023-04-21T21:42:35.449Z,99.90
2023-04-21T21:45:02.832Z,99.90
2023-04-21T21:47:30.329Z,99.90
2023-04-21T21:49:58.903Z,99.90
2023-04-21T21:52:28.623Z,99.90
2023-04-21T21:54:56.939Z,99.90
2023-04-21T21:57:24.683Z,99.90
2023-04-21T21:59:52.465Z,99.90
2023-04-21T22:02:20.163Z,99.90
2023-04-21T22:04:47.719Z,99.90
2023-04-21T22:07:15.140Z,99.90
2023-04-21T22:09:42.425Z,99.90
2023-04-21T22:12:09.827Z,99.90
2023-04-21T22:14:37.369Z,99.90
2023-04-21T22:17:06.766Z,99.90
2023-04-21T22:19:34.227Z,99.90
2023-04-21T22:22:01.596Z,99.90
2023-04-21T22:24:28.918Z,99.90
2023-04-21T22:26:57.211Z,99.90
2023-04-21T22:29:24.498Z,99.90
2023-04-21T22:31:52.004Z,99.90
2023-04-21T22:34:19.822Z,99.90
2023-04-21T22:36:47.299Z,99.90
2023-04-21T22:39:14.645Z,99.90
2023-04-21T22:41:42.104Z,99.90
2023-04-21T22:44:09.387Z,99.90
2023-04-21T22:46:36.807Z,99.90
2023-04-21T22:49:05.174Z,99.90
2023-04-21T22:51:33.046Z,99.90
2023-04-21T22:54:00.617Z,99.90
2023-04-21T22:56:29.346Z,99.90
2023-04-21T22:58:56.959Z,99.90
2023-04-21T23:01:24.452Z,99.90
2023-04-21T23:03:51.907Z,99.90
2023-04-21T23:06:19.345Z,99.90
2023-04-21T23:08:46.676Z,99.90
2023-04-21T23:11:14.419Z,99.90
2023-04-21T23:13:41.976Z,99.90
2023-04-21T23:16:09.431Z,99.90
2023-04-21T23:18:36.842Z,99.90
2023-04-21T23:21:04.341Z,99.90
2023-04-21T23:23:31.699Z,99.90
2023-04-21T23:25:59.342Z,99.90
2023-04-21T23:28:26.672Z,99.90
2023-04-21T23:30:54.068Z,99.90
2023-04-21T23:33:21.437Z,99.90
2023-04-21T23:35:48.803Z,99.90
2023-04-21T23:38:16.147Z,99.90
2023-04-21T23:40:43.419Z,99.90
2023-04-21T23:43:10.888Z,99.90
2023-04-21T23:45:38.220Z,99.90
2023-04-21T23:48:05.728Z,99.90
2023-04-21T23:50:33.167Z,99.90
2023-04-21T23:53:01.109Z,99.90
2023-04-21T23:55:28.723Z,99.90
2023-04-21T23:57:56.096Z,99.90
